首页
METAR-TAF:

METAR-TAF

机场 :

Fairmont Municipal Airport

Fairmont, 明尼蘇達州, 美国

纬度: 43-39N, 经度: 094-25W, 海拔: 354米

当前天气观测

该预报发布于14分钟前的23:56 UTC
风速11节,风向西
温度 29°C
湿度 58%
气压 1005 hPa
能見度: 16.1公里
多云层高于4800英尺

METAR: KFRM 162356Z AUTO 27011KT 10SM BKN048 29/20 A2969 RMK AO2 SLP049 T02940200 10311 20289 53013

时间: 19:10 (00:10 UTC)


TAF: 丢失

超过4000个机场的气象观测和天气预报(METAR&TAF报告)。

可查询的气象台以黄色和红色小点在地图上表示。

将鼠标移到小点上方,可查看气象台名称。

然后点击查看天气观测和预报。

如需切换地图:点击带黑十字的绿色按钮放大地图;点击带横线的绿色按钮缩小地图;或者点击绿色箭头查看邻近地区的地图。


METAR-TAF: